Aérodrome :
LOGIN :

S'inscrire | Disclaimer

   EN    FR    IT 

 










Légende :    VFR   VFR Marginal   IFR   IFR Intensif   IFR Très Intensif
Visi : 
Plafond : 
>= 8 km
>= 3000ft
5 à 8 km
1000 à 3000 ft
1500m à 5 km
500 à 1000 ft
800 à 1500m
200 à 500 ft
< 800m
< 200 ft
Symboles :   Orages  Brouillard  Fortes neiges  Fortes précipitations  Vent > 20 kt
SIGMETs :   Divers  Orages  Givrage  Turbulence  Onde Orograph.  Cendres Volcan.







- Altitude de l'aérodrome : 194 ft
- Code IATA : IEG


EPZG - Zielona Gora Babimost

DERNIER METAR :
  • 241230Z 26014KT 210V290 9999 SCT030 18/10 Q1016

METARs EXPIRÉS :
  • 241200Z 26013KT 220V310 9999 SCT038 18/10 Q1016
  • 241130Z 27011KT 230V300 9999 SCT035 18/09 Q1016
  • 241100Z 26010KT 220V300 9999 FEW034 SCT049 17/09 Q1017
  • 241030Z 28008KT 230V310 9999 SCT030 BKN044 17/09 Q1017
  • 241000Z 27010KT 250V310 9999 SCT029 BKN047 17/09 Q1017

TAF TAF EPZG
Valide du 24 à 12h jusqu'au 24 à 21h UTC


241130Z 2412/2421 29010KT 9999 BKN025
TEMPO 2412/2421 SHRA BKN009 BKN022CB
PROB40
TEMPO 2412/2417 30016G26KT 3000 TSRA BKN014CB
Pas de NOTAMs connus pour ce terrain.



MET'MAP, la Météo Aéronautique d'un coup d'oeil ! - Copyright ORBIFLY Décembre 2007 - Disclaimer

ORBIFLY MET'MAP TEAM :

Programmation & Développement : Alexandra Zaïnal
Conception & Développement : Baudouin d'Aumeries
Co-Programmation & Développement : Marc-Olivier Méhu
Soutien technique & logistique : Manuel Goepfert

Contact : metmap@orbifly.com




SOURCES & CREDITS :

   NOAA